Hauptseite
METAR-TAF:

METAR-TAF

Flughäfen :

Lugano, Schweiz

Flughafen Lugano-Agno

Breite: 46-00N, Länge: 008-58E, Höhe: 273 m

Beobachtung

Neuester Wetterbericht von vor 41 Minuten, um 00:20 UTC
Wind 2 kt aus unterschiedlichen Richtungen
Temperatur 4°C
Luftfeuchtigkeit 65%
Luftdruck 1012 hPa
Sichtweite 10 km oder mehr
Aufgelockert bewölkt in der Höhe von 11000 ft

METAR: LSZA 200020Z AUTO VRB02KT 9999 SCT110 04/M02 Q1012

Zeit: 02:01 (01:01 UTC)

Prognose

Neuester Wetterbericht von vor 10 Stunden und 36 Minuten, um 14:25 UTC
Gültige Prognose vom 19 um 15 UTC bis 19 um 24 UTC
Wind 10 kt aus Nord/Nordost, Böen bis zu 25 kt
Sichtweite 10 km oder mehr
Leicht bewölkt in der Höhe von 11000 ft
Übergehend zu
vom 19 um 17 UTC bis 19 um 20 UTC
Wind 3 kt aus unterschiedlichen Richtungen

TAF: LSZA 191425Z 1915/1924 03010G25KT 9999 FEW110 BECMG 1917/1920 VRB03KT

Wetterbeobachtungen und Prognosen von mehr als 4000 Flughäfen (METAR und TAF Bericht).

Die verfügbaren Stationen werden durch gelbe und rote Markierungen auf der Karte dargestellt.

Führen Sie die Maus auf sie, um den Namen der Station zu sehen.

Darauf klicken, um die Beobachtung von Wetterbeobachtungen und Prognosen zu sehen.

Um die Karte zu ändern : klicken Sie auf den grünen Tasten mit einem schwarzen Kreuz Zum Vergrößern, auf den grünen Button mit einem Gedankenstrich zu verkleinern, oder auf die grünen Pfeile für benachbarte Karten.


METAR-TAF: